createdAt,value
2023-01-07T00:01:54.628Z,99182.53
2023-01-07T00:04:21.801Z,99168.59
2023-01-07T00:06:50.105Z,99161.16
2023-01-07T00:09:17.285Z,99155.16
2023-01-07T00:11:45.849Z,99154.31
2023-01-07T00:14:14.387Z,99161.53
2023-01-07T00:16:41.868Z,99158.19
2023-01-07T00:19:13.444Z,99146.75
2023-01-07T00:21:40.633Z,99150.50
2023-01-07T00:24:09.830Z,99142.78
2023-01-07T00:26:38.426Z,99119.09
2023-01-07T00:29:06.911Z,99118.28
2023-01-07T00:31:37.004Z,99113.09
2023-01-07T00:34:04.362Z,99105.31
2023-01-07T00:36:46.344Z,99106.25
2023-01-07T00:39:16.632Z,99101.47
2023-01-07T00:42:02.873Z,99098.56
2023-01-07T00:44:30.640Z,99090.78
2023-01-07T00:46:58.756Z,99078.53
2023-01-07T00:49:26.078Z,99070.03
2023-01-07T00:51:53.635Z,99073.47
2023-01-07T00:54:20.696Z,99057.75
2023-01-07T00:56:47.686Z,99061.59
2023-01-07T00:59:14.566Z,99059.69
2023-01-07T01:01:41.696Z,99060.53
2023-01-07T01:04:08.800Z,99056.31
2023-01-07T01:06:35.917Z,99047.66
2023-01-07T01:09:03.294Z,99035.44
2023-01-07T01:11:30.199Z,99019.81
2023-01-07T01:13:57.037Z,99009.25
2023-01-07T01:16:24.050Z,99007.47
2023-01-07T01:18:50.987Z,98995.19
2023-01-07T01:21:19.130Z,98991.00
2023-01-07T01:23:46.123Z,98984.75
2023-01-07T01:26:16.016Z,98976.09
2023-01-07T01:28:43.819Z,98972.50
2023-01-07T01:31:11.460Z,98970.81
2023-01-07T01:33:38.538Z,98956.03
2023-01-07T01:36:08.237Z,98963.88
2023-01-07T01:38:35.175Z,98949.91
2023-01-07T01:41:02.350Z,98950.75
2023-01-07T01:43:35.331Z,98947.28
2023-01-07T01:46:12.973Z,98939.34
2023-01-07T01:48:46.640Z,98933.34
2023-01-07T01:51:15.909Z,98935.88
2023-01-07T01:53:42.981Z,98920.97
2023-01-07T01:56:14.075Z,98913.19
2023-01-07T01:58:50.191Z,98910.56
2023-01-07T02:01:17.429Z,98908.63
2023-01-07T02:03:45.126Z,98890.13
2023-01-07T02:06:37.780Z,98886.63
2023-01-07T02:09:05.139Z,98878.69
2023-01-07T02:11:41.225Z,98870.91
2023-01-07T02:14:38.109Z,98863.78
2023-01-07T02:17:26.346Z,98860.34
2023-01-07T02:20:11.306Z,98859.34
2023-01-07T02:22:56.013Z,98846.41
2023-01-07T02:26:00.176Z,98840.84
2023-01-07T02:28:59.665Z,98839.06
2023-01-07T02:31:26.506Z,98836.41
2023-01-07T02:34:11.259Z,98839.06
2023-01-07T02:36:45.141Z,98822.25
2023-01-07T02:39:45.785Z,98813.59
2023-01-07T02:42:15.320Z,98804.84
2023-01-07T02:44:45.666Z,98805.56
2023-01-07T02:47:26.415Z,98799.56
2023-01-07T02:49:53.281Z,98804.56
2023-01-07T02:52:25.878Z,98794.72
2023-01-07T02:55:07.345Z,98788.59
2023-01-07T02:58:12.644Z,98793.72
2023-01-07T03:01:09.628Z,98791.09
2023-01-07T03:03:46.667Z,98778.59
2023-01-07T03:06:25.659Z,98769.00
2023-01-07T03:09:12.765Z,98763.00
2023-01-07T03:11:51.045Z,98763.56
2023-01-07T03:14:32.886Z,98769.69
2023-01-07T03:17:05.307Z,98765.25
2023-01-07T03:19:35.969Z,98747.44
2023-01-07T03:22:06.631Z,98739.66
2023-01-07T03:24:33.914Z,98730.75
2023-01-07T03:27:03.446Z,98722.81
2023-01-07T03:29:32.544Z,98707.69
2023-01-07T03:32:45.573Z,98710.31
2023-01-07T03:35:12.767Z,98702.41
2023-01-07T03:37:42.794Z,98691.81
2023-01-07T03:40:12.065Z,98675.97
2023-01-07T03:42:42.124Z,98675.97
2023-01-07T03:45:15.112Z,98673.19
2023-01-07T03:47:45.926Z,98676.50
2023-01-07T03:50:12.795Z,98665.09
2023-01-07T03:52:39.684Z,98670.13
2023-01-07T03:55:07.322Z,98670.13
2023-01-07T03:57:34.625Z,98662.34
2023-01-07T04:00:01.657Z,98651.63
2023-01-07T04:02:28.489Z,98659.97
2023-01-07T04:04:55.384Z,98655.69
2023-01-07T04:07:22.287Z,98653.03
2023-01-07T04:09:50.630Z,98657.34
2023-01-07T04:12:18.457Z,98654.56
2023-01-07T04:14:45.627Z,98653.03
2023-01-07T04:17:12.663Z,98658.06
2023-01-07T04:19:39.997Z,98656.38
2023-01-07T04:22:09.716Z,98648.44
2023-01-07T04:24:36.546Z,98642.88
2023-01-07T04:27:03.812Z,98637.59
2023-01-07T04:29:30.800Z,98630.50
2023-01-07T04:31:58.183Z,98631.34
2023-01-07T04:34:25.841Z,98630.34
2023-01-07T04:36:52.819Z,98632.03
2023-01-07T04:39:19.890Z,98618.94
2023-01-07T04:41:47.439Z,98615.06
2023-01-07T04:44:15.750Z,98609.22
2023-01-07T04:46:42.562Z,98606.31
2023-01-07T04:49:09.871Z,98589.59
2023-01-07T04:51:36.737Z,98597.25
2023-01-07T04:54:03.619Z,98590.16
2023-01-07T04:56:30.430Z,98584.03
2023-01-07T04:58:57.331Z,98583.91
2023-01-07T05:01:25.680Z,98579.44
2023-01-07T05:03:52.642Z,98569.84
2023-01-07T05:06:19.691Z,98563.72
2023-01-07T05:08:46.512Z,98558.16
2023-01-07T05:11:14.231Z,98560.81
2023-01-07T05:13:41.043Z,98555.53
2023-01-07T05:16:07.962Z,98568.59
2023-01-07T05:18:34.783Z,98561.78
2023-01-07T05:21:01.608Z,98558.84
2023-01-07T05:23:28.443Z,98565.81
2023-01-07T05:25:55.501Z,98585.03
2023-01-07T05:28:22.351Z,98593.91
2023-01-07T05:30:49.235Z,98584.19
2023-01-07T05:33:16.107Z,98572.06
2023-01-07T05:35:42.955Z,98571.91
2023-01-07T05:38:09.877Z,98562.91
2023-01-07T05:40:36.711Z,98563.88
2023-01-07T05:43:03.639Z,98566.63
2023-01-07T05:45:30.527Z,98571.91
2023-01-07T05:47:57.496Z,98564.00
2023-01-07T05:50:24.369Z,98569.84
2023-01-07T05:52:52.182Z,98572.50
2023-01-07T05:55:19.427Z,98560.94
2023-01-07T05:57:46.277Z,98555.78
2023-01-07T06:00:13.844Z,98555.25
2023-01-07T06:02:40.680Z,98554.97
2023-01-07T06:05:09.043Z,98549.38
2023-01-07T06:07:36.402Z,98544.94
2023-01-07T06:10:03.665Z,98538.00
2023-01-07T06:12:31.054Z,98537.16
2023-01-07T06:14:57.900Z,98535.19
2023-01-07T06:17:24.730Z,98524.63
2023-01-07T06:19:51.539Z,98523.78
2023-01-07T06:22:18.424Z,98522.66
2023-01-07T06:24:45.285Z,98518.22
2023-01-07T06:27:13.037Z,98517.38
2023-01-07T06:29:39.896Z,98509.31
2023-01-07T06:32:07.040Z,98507.63
2023-01-07T06:34:34.000Z,98506.66
2023-01-07T06:37:01.009Z,98510.97
2023-01-07T06:39:27.926Z,98511.81
2023-01-07T06:41:54.806Z,98513.50
2023-01-07T06:44:21.683Z,98510.84
2023-01-07T06:46:48.506Z,98520.44
2023-01-07T06:49:15.563Z,98516.81
2023-01-07T06:51:42.354Z,98524.75
2023-01-07T06:54:09.253Z,98524.59
2023-01-07T06:56:36.065Z,98512.78
2023-01-07T06:59:02.893Z,98509.00
2023-01-07T07:01:29.797Z,98516.25
2023-01-07T07:03:56.702Z,98510.38
2023-01-07T07:06:23.565Z,98507.47
2023-01-07T07:08:50.551Z,98505.34
2023-01-07T07:11:17.418Z,98514.69
2023-01-07T07:13:44.372Z,98503.69
2023-01-07T07:16:11.453Z,98505.06
2023-01-07T07:18:38.392Z,98508.13
2023-01-07T07:21:05.413Z,98510.75
2023-01-07T07:23:32.259Z,98504.09
2023-01-07T07:25:59.155Z,98512.88
2023-01-07T07:28:26.021Z,98518.69
2023-01-07T07:30:52.921Z,98516.34
2023-01-07T07:33:19.910Z,98515.59
2023-01-07T07:35:47.197Z,98507.13
2023-01-07T07:38:14.668Z,98506.41
2023-01-07T07:40:41.499Z,98505.28
2023-01-07T07:43:11.628Z,98512.25
2023-01-07T07:45:39.937Z,98505.00
2023-01-07T07:48:08.044Z,98504.84
2023-01-07T07:50:36.201Z,98502.75
2023-01-07T07:53:03.268Z,98499.81
2023-01-07T07:55:30.123Z,98498.50
2023-01-07T07:57:58.562Z,98492.94
2023-01-07T08:00:25.752Z,98492.47
2023-01-07T08:02:52.811Z,98488.41
2023-01-07T08:05:19.857Z,98492.44
2023-01-07T08:07:46.793Z,98473.63
2023-01-07T08:10:13.639Z,98463.69
2023-01-07T08:12:40.555Z,98457.94
2023-01-07T08:15:08.514Z,98462.94
2023-01-07T08:17:36.619Z,98465.47
2023-01-07T08:20:05.166Z,98451.50
2023-01-07T08:22:33.493Z,98452.91
2023-01-07T08:25:00.769Z,98449.25
2023-01-07T08:27:28.273Z,98438.34
2023-01-07T08:29:56.141Z,98424.13
2023-01-07T08:32:23.423Z,98421.19
2023-01-07T08:34:50.451Z,98427.16
2023-01-07T08:37:17.451Z,98423.38
2023-01-07T08:39:44.284Z,98428.00
2023-01-07T08:42:11.170Z,98421.25
2023-01-07T08:44:38.242Z,98422.78
2023-01-07T08:47:05.146Z,98413.69
2023-01-07T08:49:32.104Z,98411.72
2023-01-07T08:51:59.009Z,98396.47
2023-01-07T08:54:25.881Z,98393.53
2023-01-07T08:56:52.881Z,98389.06
2023-01-07T08:59:19.758Z,98377.31
2023-01-07T09:01:46.867Z,98378.84
2023-01-07T09:04:13.928Z,98372.38
2023-01-07T09:06:40.981Z,98370.41
2023-01-07T09:09:07.912Z,98369.44
2023-01-07T09:11:35.201Z,98372.75
2023-01-07T09:14:02.160Z,98374.16
2023-01-07T09:16:29.142Z,98377.50
2023-01-07T09:18:56.091Z,98377.19
2023-01-07T09:21:23.021Z,98368.22
2023-01-07T09:23:49.888Z,98364.66
2023-01-07T09:26:17.819Z,98364.13
2023-01-07T09:28:44.699Z,98358.47
2023-01-07T09:31:11.700Z,98356.13
2023-01-07T09:33:40.438Z,98347.56
2023-01-07T09:36:07.571Z,98357.56
2023-01-07T09:38:34.601Z,98360.91
2023-01-07T09:41:01.607Z,98357.09
2023-01-07T09:44:00.306Z,98356.09
2023-01-07T09:46:29.562Z,98363.25
2023-01-07T09:49:01.985Z,98357.78
2023-01-07T09:51:39.514Z,98352.47
2023-01-07T09:54:21.982Z,98347.66
2023-01-07T09:56:48.940Z,98339.84
2023-01-07T09:59:16.809Z,98341.94
2023-01-07T10:01:56.091Z,98346.53
2023-01-07T10:04:42.427Z,98353.84
2023-01-07T10:07:21.397Z,98354.84
2023-01-07T10:09:59.333Z,98346.19
2023-01-07T10:12:59.599Z,98344.84
2023-01-07T10:15:35.970Z,98345.81
2023-01-07T10:18:54.884Z,98355.75
2023-01-07T10:21:24.140Z,98351.41
2023-01-07T10:24:03.474Z,98342.78
2023-01-07T10:26:36.099Z,98327.06
2023-01-07T10:29:16.548Z,98330.84
2023-01-07T10:31:46.089Z,98317.59
2023-01-07T10:34:23.361Z,98316.41
2023-01-07T10:37:03.699Z,98316.22
2023-01-07T10:39:45.748Z,98298.16
2023-01-07T10:42:46.577Z,98289.34
2023-01-07T10:45:41.299Z,98297.31
2023-01-07T10:48:23.207Z,98296.63
2023-01-07T10:51:21.021Z,98300.25
2023-01-07T10:54:03.859Z,98295.13
2023-01-07T10:56:36.707Z,98295.25
2023-01-07T10:59:04.462Z,98284.00
2023-01-07T11:01:34.093Z,98286.63
2023-01-07T11:04:02.000Z,98284.16
2023-01-07T11:06:48.579Z,98291.28
2023-01-07T11:09:23.307Z,98286.09
2023-01-07T11:11:51.653Z,98270.38
2023-01-07T11:14:28.637Z,98267.06
2023-01-07T11:17:07.884Z,98256.59
2023-01-07T11:19:49.629Z,98248.50
2023-01-07T11:22:39.304Z,98246.16
2023-01-07T11:25:24.555Z,98229.25
2023-01-07T11:27:51.541Z,98232.63
2023-01-07T11:30:26.740Z,98228.66
2023-01-07T11:34:02.651Z,98231.97
2023-01-07T11:36:13.043Z,98219.38
2023-01-07T11:38:40.393Z,98223.25
2023-01-07T11:41:20.696Z,98231.50
2023-01-07T11:43:54.180Z,98238.72
2023-01-07T11:46:25.904Z,98232.47
2023-01-07T11:49:01.723Z,98215.88
2023-01-07T11:51:40.424Z,98217.50
2023-01-07T11:54:29.507Z,98210.22
2023-01-07T11:57:22.975Z,98210.94
2023-01-07T12:00:15.986Z,98214.78
2023-01-07T12:02:44.273Z,98210.16
2023-01-07T12:05:26.702Z,98209.31
2023-01-07T12:07:55.966Z,98209.03
2023-01-07T12:10:30.263Z,98200.06
2023-01-07T12:12:59.811Z,98189.47
2023-01-07T12:15:35.409Z,98180.56
2023-01-07T12:18:08.217Z,98177.59
2023-01-07T12:21:02.705Z,98171.16
2023-01-07T12:23:53.817Z,98167.19
2023-01-07T12:26:29.600Z,98161.75
2023-01-07T12:29:02.781Z,98157.28
2023-01-07T12:31:32.304Z,98150.19
2023-01-07T12:34:17.409Z,98156.44
2023-01-07T12:36:47.298Z,98148.50
2023-01-07T12:39:24.864Z,98141.41
2023-01-07T12:42:18.127Z,98141.88
2023-01-07T12:44:53.409Z,98127.66
2023-01-07T12:47:44.537Z,98120.69
2023-01-07T12:50:18.531Z,98116.22
2023-01-07T12:53:08.797Z,98116.75
2023-01-07T12:55:41.139Z,98112.28
2023-01-07T12:58:26.600Z,98098.22
2023-01-07T13:01:27.217Z,98110.31
2023-01-07T13:03:57.628Z,98102.50
2023-01-07T13:06:43.034Z,98105.84
2023-01-07T13:09:21.613Z,98100.25
2023-01-07T13:12:41.700Z,98103.56
2023-01-07T13:15:29.209Z,98090.13
2023-01-07T13:17:57.296Z,98094.97
2023-01-07T13:20:48.580Z,98074.75
2023-01-07T13:23:27.755Z,98073.91
2023-01-07T13:26:15.298Z,98081.03
2023-01-07T13:28:48.199Z,98060.53
2023-01-07T13:31:47.046Z,98064.19
2023-01-07T13:34:31.966Z,98064.84
2023-01-07T13:37:36.476Z,98048.94
2023-01-07T13:40:39.147Z,98060.88
2023-01-07T13:43:21.839Z,98050.78
2023-01-07T13:46:05.084Z,98043.50
2023-01-07T13:48:34.998Z,98035.38
2023-01-07T13:51:05.120Z,98044.00
2023-01-07T13:53:40.376Z,98042.50
2023-01-07T13:56:19.453Z,98032.91
2023-01-07T13:58:46.687Z,98039.72
2023-01-07T14:01:16.056Z,98031.75
2023-01-07T14:03:50.357Z,98033.72
2023-01-07T14:06:20.327Z,98028.41
2023-01-07T14:09:14.151Z,98020.47
2023-01-07T14:11:59.702Z,98030.09
2023-01-07T14:14:36.167Z,98011.69
2023-01-07T14:17:18.079Z,98018.81
2023-01-07T14:20:11.515Z,98033.38
2023-01-07T14:23:01.272Z,98030.72
2023-01-07T14:25:58.616Z,98018.47
2023-01-07T14:28:40.661Z,98011.00
2023-01-07T14:31:24.583Z,98008.50
2023-01-07T14:33:58.569Z,98011.47
2023-01-07T14:37:09.182Z,98023.06
2023-01-07T14:39:38.780Z,98017.75
2023-01-07T14:42:20.843Z,97996.56
2023-01-07T14:44:51.711Z,97988.63
2023-01-07T14:47:43.480Z,98001.53
2023-01-07T14:50:53.262Z,97992.94
2023-01-07T14:53:48.220Z,97989.31
2023-01-07T14:56:18.108Z,97988.63
2023-01-07T14:59:18.747Z,97987.63
2023-01-07T15:02:03.568Z,97981.81
2023-01-07T15:05:08.028Z,97983.81
2023-01-07T15:07:38.660Z,97977.22
2023-01-07T15:10:42.072Z,97985.63
2023-01-07T15:13:35.354Z,97978.69
2023-01-07T15:16:07.690Z,97964.44
2023-01-07T15:18:48.398Z,97961.78
2023-01-07T15:21:30.281Z,97965.94
2023-01-07T15:24:15.575Z,97956.34
2023-01-07T15:27:19.782Z,97951.53
2023-01-07T15:30:24.495Z,97936.97
2023-01-07T15:32:56.840Z,97925.38
2023-01-07T15:35:28.880Z,97913.75
2023-01-07T15:37:57.060Z,97918.09
2023-01-07T15:40:26.239Z,97920.56
2023-01-07T15:42:57.397Z,97915.91
2023-01-07T15:45:25.544Z,97910.59
2023-01-07T15:47:52.659Z,97900.00
2023-01-07T15:50:29.487Z,97898.03
2023-01-07T15:52:57.922Z,97890.59
2023-01-07T15:55:33.927Z,97883.81
2023-01-07T15:58:05.388Z,97876.69
2023-01-07T16:00:35.247Z,97861.09
2023-01-07T16:03:04.775Z,97861.28
2023-01-07T16:05:32.489Z,97861.41
2023-01-07T16:08:01.599Z,97839.03
2023-01-07T16:10:35.121Z,97841.22
2023-01-07T16:13:05.453Z,97833.91
2023-01-07T16:15:38.814Z,97832.72
2023-01-07T16:18:25.995Z,97864.22
2023-01-07T16:20:57.834Z,97854.63
2023-01-07T16:23:31.014Z,97863.59
2023-01-07T16:26:06.895Z,97879.97
2023-01-07T16:28:47.132Z,97868.69
2023-01-07T16:31:16.542Z,97874.13
2023-01-07T16:33:44.378Z,97874.97
2023-01-07T16:36:17.868Z,97873.31
2023-01-07T16:38:50.627Z,97878.97
2023-01-07T16:41:22.911Z,97885.25
2023-01-07T16:43:53.075Z,97890.41
2023-01-07T16:46:31.461Z,97887.25
2023-01-07T16:49:20.133Z,97901.19
2023-01-07T16:51:53.120Z,97894.56
2023-01-07T16:54:26.217Z,97898.84
2023-01-07T16:56:58.974Z,97902.53
2023-01-07T16:59:30.738Z,97887.59
2023-01-07T17:02:00.391Z,97881.44
2023-01-07T17:04:30.925Z,97882.28
2023-01-07T17:07:01.401Z,97879.13
2023-01-07T17:09:36.185Z,97871.00
2023-01-07T17:12:03.197Z,97865.38
2023-01-07T17:14:37.080Z,97852.56
2023-01-07T17:17:21.060Z,97874.47
2023-01-07T17:19:58.505Z,97871.81
2023-01-07T17:22:38.899Z,97872.28
2023-01-07T17:25:21.921Z,97893.50
2023-01-07T17:27:53.688Z,97877.91
2023-01-07T17:30:22.994Z,97884.22
2023-01-07T17:32:51.179Z,97877.91
2023-01-07T17:35:19.400Z,97878.63
2023-01-07T17:37:46.575Z,97875.31
2023-01-07T17:40:14.664Z,97874.66
2023-01-07T17:43:00.948Z,97866.00
2023-01-07T17:45:29.326Z,97867.28
2023-01-07T17:47:57.245Z,97848.84
2023-01-07T17:50:24.301Z,97848.19
2023-01-07T17:52:55.111Z,97850.13
2023-01-07T17:55:26.201Z,97841.66
2023-01-07T17:57:53.132Z,97847.63
2023-01-07T18:00:23.509Z,97847.44
2023-01-07T18:02:51.700Z,97841.28
2023-01-07T18:05:18.883Z,97842.97
2023-01-07T18:07:48.251Z,97848.91
2023-01-07T18:10:17.297Z,97848.59
2023-01-07T18:12:45.109Z,97848.59
2023-01-07T18:15:24.992Z,97842.13
2023-01-07T18:17:52.810Z,97825.34
2023-01-07T18:20:21.959Z,97840.47
2023-01-07T18:22:50.188Z,97834.34
2023-01-07T18:25:20.212Z,97835.81
2023-01-07T18:27:48.754Z,97838.97
2023-01-07T18:30:19.115Z,97838.97
2023-01-07T18:32:46.661Z,97834.63
2023-01-07T18:35:14.656Z,97834.63
2023-01-07T18:37:43.467Z,97841.78
2023-01-07T18:40:10.833Z,97824.19
2023-01-07T18:42:38.088Z,97827.03
2023-01-07T18:45:07.339Z,97820.03
2023-01-07T18:47:34.647Z,97816.59
2023-01-07T18:50:02.071Z,97807.25
2023-01-07T18:52:32.138Z,97804.78
2023-01-07T18:54:59.910Z,97798.16
2023-01-07T18:57:27.226Z,97797.22
2023-01-07T18:59:54.397Z,97785.28
2023-01-07T19:02:22.573Z,97779.31
2023-01-07T19:04:51.814Z,97784.13
2023-01-07T19:07:22.402Z,97776.31
2023-01-07T19:09:51.380Z,97780.09
2023-01-07T19:12:19.384Z,97781.41
2023-01-07T19:14:46.678Z,97774.75
2023-01-07T19:17:13.803Z,97779.06
2023-01-07T19:19:48.473Z,97772.25
2023-01-07T19:22:16.934Z,97772.50
2023-01-07T19:24:44.810Z,97764.00
2023-01-07T19:27:12.481Z,97751.41
2023-01-07T19:29:39.873Z,97746.72
2023-01-07T19:32:07.132Z,97739.34
2023-01-07T19:34:34.355Z,97732.31
2023-01-07T19:37:01.529Z,97728.78
2023-01-07T19:39:28.968Z,97726.22
2023-01-07T19:41:56.105Z,97717.56
2023-01-07T19:44:23.144Z,97713.34
2023-01-07T19:46:50.233Z,97712.44
2023-01-07T19:49:17.855Z,97709.09
2023-01-07T19:51:45.129Z,97694.25
2023-01-07T19:54:17.409Z,97692.03
2023-01-07T19:56:46.454Z,97690.69
2023-01-07T19:59:16.871Z,97692.59
2023-01-07T20:01:46.358Z,97694.88
2023-01-07T20:04:14.188Z,97688.94
2023-01-07T20:06:42.013Z,97690.75
2023-01-07T20:09:12.627Z,97680.69
2023-01-07T20:11:41.007Z,97688.75
2023-01-07T20:14:08.577Z,97684.53
2023-01-07T20:16:39.945Z,97677.50
2023-01-07T20:19:07.740Z,97671.66
2023-01-07T20:21:39.323Z,97661.47
2023-01-07T20:24:08.072Z,97672.75
2023-01-07T20:26:35.945Z,97657.06
2023-01-07T20:29:03.066Z,97664.69
2023-01-07T20:31:32.197Z,97651.19
2023-01-07T20:34:00.434Z,97650.38
2023-01-07T20:36:34.025Z,97639.53
2023-01-07T20:39:06.669Z,97641.63
2023-01-07T20:41:36.110Z,97636.69
2023-01-07T20:44:04.971Z,97641.00
2023-01-07T20:46:35.515Z,97632.03
2023-01-07T20:49:02.905Z,97631.34
2023-01-07T20:51:30.136Z,97625.25
2023-01-07T20:53:58.336Z,97629.72
2023-01-07T20:56:32.536Z,97626.03
2023-01-07T20:59:02.695Z,97619.72
2023-01-07T21:01:30.664Z,97615.78
2023-01-07T21:04:02.769Z,97625.59
2023-01-07T21:06:31.657Z,97615.69
2023-01-07T21:09:03.338Z,97619.34
2023-01-07T21:11:30.950Z,97614.03
2023-01-07T21:13:58.536Z,97633.84
2023-01-07T21:16:28.971Z,97630.72
2023-01-07T21:18:57.102Z,97617.50
2023-01-07T21:21:26.734Z,97624.59
2023-01-07T21:23:55.495Z,97613.22
2023-01-07T21:26:24.117Z,97610.47
2023-01-07T21:28:59.990Z,97602.59
2023-01-07T21:31:28.297Z,97596.31
2023-01-07T21:33:58.741Z,97589.25
2023-01-07T21:36:28.694Z,97586.34
2023-01-07T21:38:59.717Z,97579.28
2023-01-07T21:41:27.692Z,97571.03
2023-01-07T21:43:56.418Z,97572.56
2023-01-07T21:46:26.805Z,97580.41
2023-01-07T21:48:53.844Z,97579.47
2023-01-07T21:51:26.141Z,97581.00
2023-01-07T21:53:58.590Z,97584.19
2023-01-07T21:56:32.503Z,97591.69
2023-01-07T21:59:00.288Z,97593.22
2023-01-07T22:01:30.845Z,97601.53
2023-01-07T22:03:59.632Z,97598.59
2023-01-07T22:06:30.485Z,97594.47
2023-01-07T22:09:05.500Z,97583.06
2023-01-07T22:11:35.488Z,97573.63
2023-01-07T22:14:03.441Z,97587.44
2023-01-07T22:16:35.877Z,97580.81
2023-01-07T22:19:04.042Z,97586.84
2023-01-07T22:21:33.122Z,97583.53
2023-01-07T22:24:00.263Z,97576.44
2023-01-07T22:26:27.388Z,97574.97
2023-01-07T22:28:58.206Z,97579.63
2023-01-07T22:31:28.912Z,97583.66
2023-01-07T22:33:56.738Z,97575.38
2023-01-07T22:36:31.512Z,97583.03
2023-01-07T22:39:03.167Z,97572.75
2023-01-07T22:41:33.896Z,97579.41
2023-01-07T22:44:09.973Z,97580.75
2023-01-07T22:46:39.480Z,97580.25
2023-01-07T22:49:07.405Z,97577.31
2023-01-07T22:51:44.120Z,97573.34
2023-01-07T22:54:14.092Z,97557.31
2023-01-07T22:56:42.660Z,97569.09
2023-01-07T22:59:10.095Z,97562.31
2023-01-07T23:01:41.177Z,97560.16
2023-01-07T23:04:08.456Z,97550.56
2023-01-07T23:06:35.692Z,97554.72
2023-01-07T23:09:03.131Z,97549.75
2023-01-07T23:11:51.356Z,97546.63
2023-01-07T23:14:21.647Z,97547.16
2023-01-07T23:16:50.313Z,97538.91
2023-01-07T23:19:20.183Z,97537.22
2023-01-07T23:21:49.594Z,97538.41
2023-01-07T23:24:17.082Z,97525.69
2023-01-07T23:26:44.634Z,97531.31
2023-01-07T23:29:11.698Z,97528.00
2023-01-07T23:31:38.949Z,97517.75
2023-01-07T23:34:06.826Z,97522.41
2023-01-07T23:36:35.699Z,97516.78
2023-01-07T23:39:02.876Z,97517.13
2023-01-07T23:41:31.286Z,97516.63
2023-01-07T23:43:58.445Z,97506.22
2023-01-07T23:46:25.349Z,97509.03
2023-01-07T23:48:52.641Z,97505.09
2023-01-07T23:51:21.577Z,97500.13
2023-01-07T23:53:48.833Z,97499.28
2023-01-07T23:56:20.768Z,97487.38
2023-01-07T23:58:49.152Z,97481.75
